createdAt,value
2022-09-13T00:00:36.028Z,2.10
2022-09-13T00:03:23.503Z,2.50
2022-09-13T00:06:15.747Z,2.50
2022-09-13T00:09:02.749Z,3.37
2022-09-13T00:11:49.701Z,3.00
2022-09-13T00:14:36.754Z,3.77
2022-09-13T00:17:23.656Z,2.93
2022-09-13T00:20:10.670Z,2.43
2022-09-13T00:22:57.579Z,2.67
2022-09-13T00:25:44.476Z,2.67
2022-09-13T00:28:31.405Z,3.03
2022-09-13T00:31:19.175Z,3.57
2022-09-13T00:34:06.352Z,3.03
2022-09-13T00:36:53.233Z,3.50
2022-09-13T00:39:40.174Z,3.90
2022-09-13T00:42:28.916Z,3.77
2022-09-13T00:45:18.446Z,3.73
2022-09-13T00:48:08.584Z,3.80
2022-09-13T00:50:56.153Z,3.63
2022-09-13T00:53:50.174Z,3.90
2022-09-13T00:56:43.915Z,3.47
2022-09-13T00:59:40.643Z,3.67
2022-09-13T01:02:28.893Z,3.87
2022-09-13T01:05:20.201Z,3.80
2022-09-13T01:08:12.646Z,3.60
2022-09-13T01:11:01.814Z,3.43
2022-09-13T01:13:48.904Z,3.57
2022-09-13T01:16:36.187Z,3.37
2022-09-13T01:19:23.437Z,2.80
2022-09-13T01:22:34.913Z,5.77
2022-09-13T01:25:52.538Z,2.90
2022-09-13T01:29:04.329Z,3.03
2022-09-13T01:32:02.743Z,3.30
2022-09-13T01:35:16.036Z,2.63
2022-09-13T01:38:27.822Z,2.77
2022-09-13T01:41:17.708Z,3.53
2022-09-13T01:44:29.908Z,3.57
2022-09-13T01:47:40.922Z,2.40
2022-09-13T01:50:37.826Z,2.03
2022-09-13T01:53:49.970Z,2.40
2022-09-13T01:57:12.839Z,2.37
2022-09-13T02:00:09.306Z,3.00
2022-09-13T02:03:32.321Z,2.80
2022-09-13T02:06:24.482Z,2.00
2022-09-13T02:09:20.714Z,2.53
2022-09-13T02:12:17.548Z,2.87
2022-09-13T02:15:34.116Z,3.87
2022-09-13T02:18:36.227Z,3.87
2022-09-13T02:21:29.115Z,3.57
2022-09-13T02:24:29.843Z,3.40
2022-09-13T02:27:20.568Z,3.80
2022-09-13T02:30:10.265Z,3.70
2022-09-13T02:33:03.558Z,3.57
2022-09-13T02:36:04.996Z,4.40
2022-09-13T02:39:04.323Z,2.90
2022-09-13T02:42:04.486Z,1.67
2022-09-13T02:44:58.602Z,2.30
2022-09-13T02:47:57.398Z,1.60
2022-09-13T02:51:02.724Z,2.23
2022-09-13T02:53:52.621Z,2.90
2022-09-13T02:56:56.604Z,3.10
2022-09-13T02:59:46.756Z,1.93
2022-09-13T03:02:34.579Z,2.17
2022-09-13T03:05:21.723Z,2.93
2022-09-13T03:08:12.357Z,3.53
2022-09-13T03:11:30.186Z,3.93
2022-09-13T03:14:34.919Z,3.30
2022-09-13T03:17:21.737Z,3.40
2022-09-13T03:20:30.121Z,4.70
2022-09-13T03:23:28.613Z,3.00
2022-09-13T03:26:52.582Z,4.27
2022-09-13T03:29:56.655Z,3.43
2022-09-13T03:33:10.533Z,3.33
2022-09-13T03:36:17.877Z,2.53
2022-09-13T03:39:27.109Z,2.60
2022-09-13T03:42:55.722Z,4.20
2022-09-13T03:45:48.820Z,2.90
2022-09-13T03:48:38.109Z,3.00
2022-09-13T03:51:25.155Z,2.47
2022-09-13T03:54:18.968Z,2.50
2022-09-13T03:57:22.629Z,2.80
2022-09-13T04:00:10.273Z,3.10
2022-09-13T04:02:58.601Z,3.13
2022-09-13T04:05:46.264Z,1.90
2022-09-13T04:08:33.806Z,2.83
2022-09-13T04:11:21.538Z,3.80
2022-09-13T04:14:08.530Z,4.10
2022-09-13T04:16:57.532Z,7.17
2022-09-13T04:19:45.630Z,3.10
2022-09-13T04:22:33.516Z,1.23
2022-09-13T04:25:22.470Z,1.37
2022-09-13T04:28:09.470Z,1.40
2022-09-13T04:30:56.410Z,2.03
2022-09-13T04:33:43.316Z,2.50
2022-09-13T04:36:31.988Z,3.20
2022-09-13T04:39:23.574Z,2.90
2022-09-13T04:42:11.427Z,3.40
2022-09-13T04:44:58.521Z,3.37
2022-09-13T04:47:51.422Z,3.60
2022-09-13T04:50:38.491Z,3.83
2022-09-13T04:53:25.704Z,3.90
2022-09-13T04:56:15.148Z,3.13
2022-09-13T04:59:02.179Z,3.37
2022-09-13T05:01:49.196Z,3.27
2022-09-13T05:04:36.302Z,3.43
2022-09-13T05:07:23.297Z,5.30
2022-09-13T05:10:10.245Z,3.00
2022-09-13T05:12:57.516Z,3.20
2022-09-13T05:15:44.562Z,3.10
2022-09-13T05:18:33.818Z,3.00
2022-09-13T05:21:21.612Z,4.13
2022-09-13T05:24:09.461Z,3.97
2022-09-13T05:26:56.367Z,3.93
2022-09-13T05:29:43.713Z,3.77
2022-09-13T05:32:31.696Z,3.87
2022-09-13T05:35:18.602Z,3.63
2022-09-13T05:38:05.488Z,3.37
2022-09-13T05:40:57.906Z,3.13
2022-09-13T05:43:44.907Z,3.50
2022-09-13T05:46:31.879Z,3.80
2022-09-13T05:49:18.875Z,3.00
2022-09-13T05:52:05.812Z,2.87
2022-09-13T05:54:52.734Z,2.70
2022-09-13T05:57:39.753Z,2.60
2022-09-13T06:00:26.777Z,2.77
2022-09-13T06:03:13.706Z,2.93
2022-09-13T06:06:00.736Z,2.40
2022-09-13T06:08:48.690Z,2.73
2022-09-13T06:11:35.691Z,3.27
2022-09-13T06:14:22.672Z,3.17
2022-09-13T06:17:09.574Z,4.20
2022-09-13T06:19:57.029Z,5.03
2022-09-13T06:22:43.985Z,5.10
2022-09-13T06:25:31.095Z,5.67
2022-09-13T06:28:19.208Z,5.70
2022-09-13T06:31:12.963Z,5.70
2022-09-13T06:34:02.515Z,5.83
2022-09-13T06:36:49.618Z,6.70
2022-09-13T06:39:36.636Z,5.80
2022-09-13T06:42:23.620Z,6.07
2022-09-13T06:45:11.558Z,6.70
2022-09-13T06:47:58.484Z,5.30
2022-09-13T06:50:45.774Z,6.07
2022-09-13T06:53:34.769Z,6.33
2022-09-13T06:56:27.533Z,5.50
2022-09-13T06:59:14.482Z,6.37
2022-09-13T07:02:01.518Z,6.53
2022-09-13T07:04:48.474Z,6.80
2022-09-13T07:07:35.402Z,6.30
2022-09-13T07:10:22.305Z,6.67
2022-09-13T07:13:09.233Z,6.80
2022-09-13T07:15:56.534Z,6.90
2022-09-13T07:18:43.766Z,6.10
2022-09-13T07:21:30.832Z,6.60
2022-09-13T07:24:18.435Z,6.40
2022-09-13T07:27:05.504Z,6.47
2022-09-13T07:29:52.412Z,6.27
2022-09-13T07:32:39.379Z,6.00
2022-09-13T07:35:26.350Z,6.30
2022-09-13T07:38:13.264Z,6.37
2022-09-13T07:41:00.821Z,7.03
2022-09-13T07:43:48.435Z,6.33
2022-09-13T07:46:39.911Z,6.80
2022-09-13T07:49:26.914Z,6.70
2022-09-13T07:52:13.823Z,5.80
2022-09-13T07:55:00.779Z,6.03
2022-09-13T07:57:47.694Z,5.70
2022-09-13T08:00:34.616Z,6.50
2022-09-13T08:03:21.562Z,6.60
2022-09-13T08:06:09.266Z,5.83
2022-09-13T08:08:56.898Z,5.93
2022-09-13T08:11:52.703Z,5.20
2022-09-13T08:14:39.649Z,4.73
2022-09-13T08:17:26.553Z,4.40
2022-09-13T08:20:14.331Z,3.93
2022-09-13T08:23:01.253Z,3.80
2022-09-13T08:25:48.169Z,3.77
2022-09-13T08:28:36.281Z,4.13
2022-09-13T08:31:23.338Z,4.03
2022-09-13T08:34:12.876Z,3.97
2022-09-13T08:36:59.842Z,3.70
2022-09-13T08:39:47.338Z,4.03
2022-09-13T08:42:51.111Z,3.60
2022-09-13T08:45:39.375Z,3.60
2022-09-13T08:48:34.682Z,4.10
2022-09-13T08:51:29.291Z,4.70
2022-09-13T08:54:17.937Z,4.03
2022-09-13T08:57:26.586Z,3.77
2022-09-13T09:00:30.332Z,3.77
2022-09-13T09:03:29.754Z,3.80
2022-09-13T09:06:17.626Z,4.10
2022-09-13T09:09:08.302Z,3.80
2022-09-13T09:12:15.343Z,3.90
2022-09-13T09:15:11.452Z,3.47
2022-09-13T09:18:04.575Z,3.60
2022-09-13T09:20:54.705Z,3.83
2022-09-13T09:23:50.550Z,3.97
2022-09-13T09:26:37.569Z,3.13
2022-09-13T09:29:28.197Z,3.20
2022-09-13T09:32:21.453Z,3.30
2022-09-13T09:35:28.118Z,3.03
2022-09-13T09:38:37.012Z,2.90
2022-09-13T09:41:32.526Z,3.07
2022-09-13T09:44:23.027Z,3.20
2022-09-13T09:47:20.365Z,3.03
2022-09-13T09:50:34.162Z,3.10
2022-09-13T09:53:37.002Z,2.70
2022-09-13T09:56:32.378Z,2.43
2022-09-13T09:59:32.134Z,2.83
2022-09-13T10:02:21.922Z,2.63
2022-09-13T10:05:09.803Z,3.20
2022-09-13T10:08:00.808Z,2.90
2022-09-13T10:10:57.437Z,3.23
2022-09-13T10:14:03.596Z,3.30
2022-09-13T10:17:04.709Z,2.73
2022-09-13T10:20:03.896Z,2.83
2022-09-13T10:23:14.467Z,2.90
2022-09-13T10:26:14.225Z,2.80
2022-09-13T10:29:08.979Z,3.17
2022-09-13T10:32:03.571Z,2.20
2022-09-13T10:34:51.548Z,2.40
2022-09-13T10:37:43.695Z,2.50
2022-09-13T10:40:38.309Z,2.30
2022-09-13T10:43:28.886Z,2.10
2022-09-13T10:46:23.236Z,2.10
2022-09-13T10:49:48.807Z,2.80
2022-09-13T10:52:43.780Z,2.00
2022-09-13T10:55:34.923Z,3.13
2022-09-13T10:58:21.929Z,2.30
2022-09-13T11:01:27.762Z,2.80
2022-09-13T11:04:51.026Z,2.70
2022-09-13T11:08:03.857Z,2.30
2022-09-13T11:11:17.088Z,2.80
2022-09-13T11:14:19.582Z,2.47
2022-09-13T11:17:51.668Z,2.50
2022-09-13T11:20:50.776Z,2.50
2022-09-13T11:23:43.686Z,2.67
2022-09-13T11:26:43.317Z,2.47
2022-09-13T11:29:41.056Z,2.97
2022-09-13T11:32:47.542Z,2.73
2022-09-13T11:35:52.718Z,2.60
2022-09-13T11:38:58.758Z,3.10
2022-09-13T11:42:22.104Z,3.13
2022-09-13T11:45:21.932Z,3.20
2022-09-13T11:48:25.026Z,2.87
2022-09-13T11:51:37.430Z,2.67
2022-09-13T11:54:33.380Z,2.47
2022-09-13T11:57:49.752Z,2.70
2022-09-13T12:00:50.579Z,2.50
2022-09-13T12:03:50.270Z,2.90
2022-09-13T12:06:42.045Z,3.17
2022-09-13T12:09:36.230Z,3.47
2022-09-13T12:12:28.090Z,2.83
2022-09-13T12:15:22.027Z,3.13
2022-09-13T12:18:28.202Z,3.00
2022-09-13T12:21:20.459Z,2.57
2022-09-13T12:24:17.031Z,2.50
2022-09-13T12:27:22.033Z,2.43
2022-09-13T12:30:37.603Z,2.40
2022-09-13T12:33:25.310Z,2.37
2022-09-13T12:36:12.148Z,2.53
2022-09-13T12:39:09.576Z,2.57
2022-09-13T12:42:27.486Z,2.47
2022-09-13T12:45:26.735Z,2.43
2022-09-13T12:48:33.255Z,2.80
2022-09-13T12:51:51.595Z,3.10
2022-09-13T12:54:57.883Z,2.83
2022-09-13T12:58:01.475Z,3.30
2022-09-13T13:00:57.701Z,2.90
2022-09-13T13:04:17.106Z,3.00
2022-09-13T13:07:16.230Z,2.70
2022-09-13T13:10:04.019Z,3.20
2022-09-13T13:12:51.034Z,2.80
2022-09-13T13:15:37.853Z,2.83
2022-09-13T13:18:44.498Z,3.03
2022-09-13T13:21:36.421Z,2.93
2022-09-13T13:24:23.629Z,2.73
2022-09-13T13:27:51.525Z,2.53
2022-09-13T13:30:40.213Z,2.83
2022-09-13T13:33:29.150Z,2.93
2022-09-13T13:36:24.573Z,3.10
2022-09-13T13:39:23.243Z,3.10
2022-09-13T13:42:25.541Z,2.90
2022-09-13T13:45:23.952Z,4.43
2022-09-13T13:48:15.454Z,3.97
2022-09-13T13:51:11.846Z,3.37
2022-09-13T13:54:24.596Z,4.47
2022-09-13T13:57:20.827Z,3.73
2022-09-13T14:00:16.593Z,3.63
2022-09-13T14:03:47.829Z,3.20
2022-09-13T14:06:49.974Z,3.07
2022-09-13T14:09:52.991Z,3.30
2022-09-13T14:12:59.392Z,3.23
2022-09-13T14:16:17.817Z,4.57
2022-09-13T14:19:15.514Z,4.27
2022-09-13T14:22:14.469Z,4.47
2022-09-13T14:25:16.249Z,3.47
2022-09-13T14:28:06.348Z,4.20
2022-09-13T14:30:58.630Z,3.77
2022-09-13T14:33:45.667Z,3.53
2022-09-13T14:36:32.653Z,3.00
2022-09-13T14:39:19.571Z,3.33
2022-09-13T14:42:15.710Z,3.30
2022-09-13T14:45:02.833Z,4.30
2022-09-13T14:48:06.997Z,3.70
2022-09-13T14:51:03.142Z,3.40
2022-09-13T14:53:54.566Z,3.60
2022-09-13T14:56:52.347Z,3.50
2022-09-13T14:59:39.262Z,3.70
2022-09-13T15:02:30.978Z,3.97
2022-09-13T15:05:22.498Z,3.33
2022-09-13T15:08:33.645Z,3.33
2022-09-13T15:11:33.510Z,3.57
2022-09-13T15:14:25.417Z,3.30
2022-09-13T15:17:14.195Z,2.70
2022-09-13T15:20:05.966Z,3.33
2022-09-13T15:22:53.842Z,3.13
2022-09-13T15:25:40.779Z,3.57
2022-09-13T15:28:32.817Z,3.37
2022-09-13T15:31:25.444Z,3.60
2022-09-13T15:34:23.793Z,4.20
2022-09-13T15:37:13.623Z,4.03
2022-09-13T15:40:20.475Z,4.10
2022-09-13T15:43:07.515Z,4.17
2022-09-13T15:45:56.715Z,3.77
2022-09-13T15:48:51.634Z,3.10
2022-09-13T15:51:42.389Z,3.80
2022-09-13T15:54:36.437Z,4.20
2022-09-13T15:57:25.440Z,4.43
2022-09-13T16:00:26.225Z,5.30
2022-09-13T16:03:13.144Z,4.87
2022-09-13T16:06:00.173Z,4.73
2022-09-13T16:08:47.093Z,3.80
2022-09-13T16:11:34.075Z,3.37
2022-09-13T16:14:20.977Z,3.40
2022-09-13T16:17:13.967Z,2.90
2022-09-13T16:20:00.970Z,2.77
2022-09-13T16:22:47.889Z,3.33
2022-09-13T16:25:35.919Z,3.07
2022-09-13T16:28:22.999Z,3.00
2022-09-13T16:31:10.025Z,3.07
2022-09-13T16:33:57.185Z,3.20
2022-09-13T16:36:44.444Z,2.83
2022-09-13T16:39:31.398Z,3.10
2022-09-13T16:42:18.495Z,3.07
2022-09-13T16:45:05.910Z,2.80
2022-09-13T16:47:52.869Z,3.00
2022-09-13T16:50:41.199Z,3.00
2022-09-13T16:53:32.268Z,2.80
2022-09-13T16:56:22.703Z,3.10
2022-09-13T16:59:09.749Z,2.40
2022-09-13T17:01:56.925Z,3.53
2022-09-13T17:04:43.996Z,2.80
2022-09-13T17:07:31.963Z,2.80
2022-09-13T17:10:19.639Z,2.87
2022-09-13T17:13:06.935Z,2.00
2022-09-13T17:15:56.711Z,2.53
2022-09-13T17:18:43.846Z,3.67
2022-09-13T17:21:33.681Z,3.20
2022-09-13T17:24:20.633Z,2.87
2022-09-13T17:27:07.954Z,2.90
2022-09-13T17:29:54.891Z,4.00
2022-09-13T17:32:41.808Z,2.77
2022-09-13T17:35:29.822Z,2.90
2022-09-13T17:38:16.754Z,2.80
2022-09-13T17:41:23.957Z,2.90
2022-09-13T17:44:12.732Z,3.03
2022-09-13T17:46:59.746Z,2.83
2022-09-13T17:49:47.658Z,2.90
2022-09-13T17:52:35.254Z,2.93
2022-09-13T17:55:22.266Z,3.13
2022-09-13T17:58:09.162Z,3.03
2022-09-13T18:01:02.789Z,2.90
2022-09-13T18:03:49.775Z,4.70
2022-09-13T18:06:38.537Z,3.20
2022-09-13T18:09:26.930Z,3.00
2022-09-13T18:12:13.942Z,3.00
2022-09-13T18:15:01.742Z,3.13
2022-09-13T18:17:48.650Z,2.60
2022-09-13T18:20:40.387Z,2.73
2022-09-13T18:23:32.514Z,2.90
2022-09-13T18:26:22.584Z,2.83
2022-09-13T18:29:14.255Z,2.87
2022-09-13T18:32:01.382Z,3.00
2022-09-13T18:34:48.730Z,2.97
2022-09-13T18:37:35.699Z,4.03
2022-09-13T18:40:22.995Z,4.73
2022-09-13T18:43:10.073Z,3.67
2022-09-13T18:46:04.535Z,3.97
2022-09-13T18:48:54.177Z,4.63
2022-09-13T18:51:43.637Z,4.10
2022-09-13T18:54:30.570Z,4.03
2022-09-13T18:57:18.197Z,3.47
2022-09-13T19:00:05.793Z,4.13
2022-09-13T19:03:11.130Z,4.33
2022-09-13T19:06:18.802Z,4.30
2022-09-13T19:09:08.250Z,4.27
2022-09-13T19:11:55.237Z,4.57
2022-09-13T19:14:42.574Z,4.63
2022-09-13T19:17:29.482Z,3.97
2022-09-13T19:20:16.710Z,3.77
2022-09-13T19:23:03.651Z,4.50
2022-09-13T19:25:50.577Z,4.37
2022-09-13T19:28:39.294Z,5.00
2022-09-13T19:31:27.900Z,4.80
2022-09-13T19:34:17.984Z,4.63
2022-09-13T19:37:04.979Z,4.73
2022-09-13T19:39:52.021Z,4.27
2022-09-13T19:42:39.002Z,4.87
2022-09-13T19:45:25.923Z,5.07
2022-09-13T19:48:37.554Z,5.63
2022-09-13T19:51:22.653Z,5.60
2022-09-13T19:54:14.762Z,5.57
2022-09-13T19:57:03.420Z,4.43
2022-09-13T19:59:50.448Z,5.17
2022-09-13T20:02:37.336Z,4.43
2022-09-13T20:05:27.998Z,5.23
2022-09-13T20:08:15.554Z,4.97
2022-09-13T20:11:07.957Z,5.70
2022-09-13T20:13:59.435Z,4.50
2022-09-13T20:16:47.355Z,5.13
2022-09-13T20:19:42.599Z,4.60
2022-09-13T20:22:31.101Z,4.00
2022-09-13T20:25:18.974Z,4.80
2022-09-13T20:28:06.346Z,4.40
2022-09-13T20:30:59.771Z,4.40
2022-09-13T20:33:46.742Z,4.70
2022-09-13T20:36:36.589Z,4.80
2022-09-13T20:39:25.155Z,4.03
2022-09-13T20:42:13.094Z,4.40
2022-09-13T20:45:05.117Z,6.23
2022-09-13T20:47:52.160Z,4.60
2022-09-13T20:50:40.346Z,4.70
2022-09-13T20:53:28.771Z,4.53
2022-09-13T20:56:17.724Z,4.40
2022-09-13T20:59:04.650Z,5.03
2022-09-13T21:01:51.593Z,4.47
2022-09-13T21:04:39.546Z,4.63
2022-09-13T21:07:45.124Z,4.73
2022-09-13T21:10:32.105Z,4.70
2022-09-13T21:13:19.037Z,4.97
2022-09-13T21:16:33.899Z,4.47
2022-09-13T21:19:20.807Z,4.93
2022-09-13T21:22:08.034Z,4.80
2022-09-13T21:24:54.924Z,4.90
2022-09-13T21:27:45.608Z,3.90
2022-09-13T21:30:32.516Z,3.73
2022-09-13T21:33:19.493Z,3.90
2022-09-13T21:36:07.209Z,3.80
2022-09-13T21:38:55.866Z,3.40
2022-09-13T21:41:43.447Z,3.80
2022-09-13T21:44:31.126Z,4.03
2022-09-13T21:47:18.053Z,3.30
2022-09-13T21:50:05.307Z,3.50
2022-09-13T21:52:52.219Z,3.47
2022-09-13T21:55:39.754Z,3.70
2022-09-13T21:58:26.656Z,3.80
2022-09-13T22:01:15.540Z,4.17
2022-09-13T22:04:02.550Z,3.67
2022-09-13T22:06:52.100Z,4.03
2022-09-13T22:09:38.998Z,3.97
2022-09-13T22:12:25.925Z,4.93
2022-09-13T22:15:13.066Z,3.47
2022-09-13T22:17:59.997Z,3.33
2022-09-13T22:20:47.134Z,4.80
2022-09-13T22:23:35.044Z,4.97
2022-09-13T22:26:24.973Z,4.17
2022-09-13T22:29:12.448Z,4.27
2022-09-13T22:31:59.682Z,3.80
2022-09-13T22:34:46.813Z,2.80
2022-09-13T22:37:33.700Z,3.47
2022-09-13T22:40:22.316Z,4.40
2022-09-13T22:43:09.917Z,4.30
2022-09-13T22:46:08.888Z,4.13
2022-09-13T22:48:56.537Z,4.40
2022-09-13T22:51:47.301Z,4.60
2022-09-13T22:54:34.402Z,3.93
2022-09-13T22:57:21.312Z,4.87
2022-09-13T23:00:08.907Z,5.20
2022-09-13T23:02:56.069Z,4.40
2022-09-13T23:05:51.318Z,3.63
2022-09-13T23:08:39.275Z,3.77
2022-09-13T23:11:29.909Z,5.67
2022-09-13T23:14:17.547Z,6.13
2022-09-13T23:17:04.625Z,4.10
2022-09-13T23:19:51.574Z,4.03
2022-09-13T23:22:38.795Z,4.03
2022-09-13T23:25:25.992Z,3.80
2022-09-13T23:28:13.774Z,3.30
2022-09-13T23:31:21.750Z,3.33
2022-09-13T23:34:10.527Z,4.13
2022-09-13T23:36:57.420Z,4.57
2022-09-13T23:39:44.552Z,4.47
2022-09-13T23:42:31.594Z,4.40
2022-09-13T23:45:18.576Z,4.17
2022-09-13T23:48:05.470Z,3.70
2022-09-13T23:51:04.233Z,4.10
2022-09-13T23:53:52.970Z,3.40
2022-09-13T23:56:39.886Z,3.47
2022-09-13T23:59:27.131Z,3.60
